Home > Products > Valid Products > TAF

000
FTUS45 KABQ 250500
TAFSAF
TAF
KSAF 250525Z 2506/2606 02008KT P6SM SCT250
     FM251700 23011KT P6SM BKN200
     FM251900 23017G27KT P6SM BKN200
     FM260200 23010KT P6SM BKN200=



000
FTUS45 KABQ 250500
TAFLVS
TAF
KLVS 250525Z 2506/2606 22011KT P6SM SCT250
     FM251600 22015G25KT P6SM BKN200
     FM251900 23026G36KT P6SM BKN200
     FM260200 22018G28KT P6SM BKN200
     FM260500 21015KT P6SM BKN200=



000
FTUS45 KABQ 250500
TAFGUP
TAF
KGUP 250525Z 2506/2606 VRB05KT P6SM BKN250
     FM251500 22011KT P6SM BKN250
     FM251700 22018G28KT P6SM BKN200
     FM252100 23025G35KT P6SM BKN200
     FM260200 22015G25KT P6SM BKN200
     FM260400 20010KT P6SM BKN200=



000
FTUS45 KABQ 250500
TAFTCC
TAF
KTCC 250525Z 2506/2606 19011KT P6SM FEW250
     FM251600 23015G25KT P6SM SCT200
     FM251800 23024G34KT P6SM SCT250
     FM260200 23014G24KT P6SM BKN250
     FM260400 23011KT P6SM BKN250=



000
FTUS45 KABQ 250500
TAFROW
TAF
KROW 250525Z 2506/2606 19006KT P6SM FEW250
     FM251700 19015G25KT P6SM FEW250
     FM252000 22025G35KT P6SM FEW250
     FM260200 21013G23KT P6SM SCT250
     FM260400 21011KT P6SM SCT250=



000
FTUS45 KABQ 250500
TAFABQ
TAF
KABQ 250525Z 2506/2606 06006KT P6SM SKC
     FM251200 VRB06KT P6SM SCT250
     FM251700 21011KT P6SM BKN200
     FM252000 22017G27KT P6SM BKN200
     FM260200 22011KT P6SM BKN200=



000
FTUS45 KABQ 250500
TAFFMN
TAF
KFMN 250525Z 2506/2606 09007KT P6SM BKN250
     FM251700 21010KT P6SM BKN200
     FM252100 23015G25KT P6SM SCT120
     FM260200 23011KT P6SM SCT100=



000
FTUS45 KABQ 242300
TAFTCC
TAF
KTCC 242330Z 2500/2524 21011KT P6SM BKN200
     FM251600 23014G24KT P6SM BKN200
     FM251800 23023G33KT P6SM BKN200=



000
FTUS45 KABQ 242300
TAFABQ
TAF
KABQ 242330Z 2500/2524 11006KT P6SM SCT200
     FM251000 VRB06KT P6SM BKN250
     FM251700 22011KT P6SM SCT200
     FM252000 22017G27KT P6SM BKN200=



000
FTUS45 KABQ 242300
TAFFMN
TAF
KFMN 242330Z 2500/2524 28010KT P6SM FEW200
      TEMPO 2500/2502 28010G17KT
     FM250200 VRB05KT P6SM SCT200
     FM250700 09008KT P6SM BKN200
     FM251700 21010KT P6SM BKN200
     FM252100 23015G25KT P6SM SCT120=



000
FTUS45 KABQ 242300
TAFROW
TAF
KROW 242330Z 2500/2524 17006KT P6SM BKN200
     FM251700 20014G24KT P6SM FEW250
     FM252000 22023G33KT P6SM FEW250=



000
FTUS45 KABQ 242300
TAFGUP
TAF
KGUP 242330Z 2500/2524 26011KT P6SM SCT200
      TEMPO 2500/2502 26012G20KT
     FM250200 VRB05KT P6SM BKN200
     FM251500 22011KT P6SM BKN200
     FM251700 22018G28KT P6SM BKN200
     FM252100 23025G35KT P6SM SCT100=



000
FTUS45 KABQ 242300
TAFSAF
TAF
KSAF 242330Z 2500/2524 25015G25KT P6SM BKN200
     FM250200 29009KT P6SM SCT200
     FM250500 02009KT P6SM BKN250
     FM251700 23011KT P6SM BKN200
     FM251900 23018G28KT P6SM SCT120=



000
FTUS45 KABQ 242300
TAFLVS
TAF
KLVS 242330Z 2500/2524 25018KT P6SM BKN200
      TEMPO 2500/2501 25020G30KT
     FM250200 23010KT P6SM SCT250
     FM251600 22015G25KT P6SM BKN200
     FM251800 23026G36KT P6SM BKN200=



000
FTUS45 KABQ 242200 AAA
TAFSAF
TAF AMD
KSAF 242229Z 2422/2518 25013G19KT P6SM SKC
      TEMPO 2422/2501 24020G30KT
     FM250500 02006KT P6SM FEW250
     FM251700 23010KT P6SM BKN250=



000
FTUS45 KABQ 242200 AAA
TAFLVS
TAF AMD
KLVS 242229Z 2422/2518 25017KT P6SM SCT250
      TEMPO 2422/2501 25020G30KT P6SM SCT250
     FM250200 24010KT P6SM SKC
     FM251600 22015G25KT P6SM SCT250=



000
FTUS45 KABQ 242200 AAA
TAFABQ
TAF AMD
KABQ 242229Z 2422/2518 15006KT P6SM FEW250
     FM251700 22011KT P6SM FEW250=



000
FTUS45 KABQ 241700 RRA
TAFSAF
TAF
KSAF 241743Z 2418/2518 29011KT P6SM SCT250
     FM242200 25013G19KT P6SM SKC
     FM250500 02006KT P6SM FEW250
     FM251700 23010KT P6SM BKN250=



000
FTUS45 KABQ 241700 RRA
TAFABQ
TAF
KABQ 241743Z 2418/2518 31010KT P6SM SCT200
     FM242200 26009G16KT P6SM SCT250
     FM250400 15005KT P6SM FEW250=



000
FTUS45 KABQ 241700 RRA
TAFTCC
TAF
KTCC 241743Z 2418/2518 29007KT P6SM FEW250
     FM242300 23013KT P6SM SKC
     FM250300 21009KT P6SM SKC
     FM251600 23015G25KT P6SM SKC=



000
FTUS45 KABQ 241700 RRA
TAFLVS
TAF
KLVS 241743Z 2418/2518 22012G20KT P6SM SCT250
     FM242100 23018G28KT P6SM SCT250
     FM250000 25021G29KT P6SM SCT250
     FM250200 24010KT P6SM SKC
     FM251600 22015G25KT P6SM SCT250=



000
FTUS45 KABQ 241700 RRA
TAFGUP
TAF
KGUP 241743Z 2418/2518 25010KT P6SM SCT200
     FM250200 VRB05KT P6SM SCT250
     FM251500 22013KT P6SM BKN250=



000
FTUS45 KABQ 241700 RRA
TAFFMN
TAF
KFMN 241743Z 2418/2518 28010KT P6SM SCT200
     FM250200 VRB05KT P6SM SCT250
     FM250700 09006KT P6SM SCT250
     FM251700 21010KT P6SM SCT250=



000
FTUS45 KABQ 241700 RRA
TAFROW
TAF
KROW 241743Z 2418/2518 02012KT P6SM FEW250
     FM242000 12006KT P6SM SKC
     FM242300 15012KT P6SM SKC
     FM250400 19007KT P6SM SKC
     FM251700 20012G24KT P6SM SKC=



000
FTUS45 KABQ 241300 AAA
TAFROW
TAF AMD
KROW 241357Z 2414/2512 02015G22KT P6SM SCT015
      TEMPO 2415/2417 5SM BLDU BKN015
     FM242000 08007KT P6SM SKC
     FM242300 15012KT P6SM SKC
     FM250400 20006KT P6SM SKC=



000
FTUS45 KABQ 241200 AAA
TAFTCC
TAF AMD
KTCC 241247Z 2413/2512 02015G22KT P6SM SCT017
     FM241500 02012KT P6SM SCT020
     FM241900 21012KT P6SM SKC
     FM250200 18010KT P6SM SKC=



000
FTUS45 KABQ 241200 AAA
TAFSAF
TAF AMD
KSAF 241239Z 2413/2512 01010KT P6SM SKC
     FM241800 25012KT P6SM SKC
     FM250200 02006KT P6SM FEW250=



000
FTUS45 KABQ 241200 AAA
TAFABQ
TAF AMD
KABQ 241238Z 2413/2512 01008KT P6SM SKC
     FM241900 24010KT P6SM SKC
     FM250300 21007KT P6SM FEW250=



000
FTUS45 KABQ 241100
TAFFMN
TAF
KFMN 241128Z 2412/2512 VRB06KT P6SM SKC
     FM241800 29010KT P6SM SCT250
     FM250200 VRB06KT P6SM SCT250
     FM250700 09006KT P6SM SCT250=



000
FTUS45 KABQ 241100
TAFROW
TAF
KROW 241128Z 2412/2512 02013KT P6SM SKC
     FM242000 08007KT P6SM SKC
     FM242300 15012KT P6SM SKC
     FM250400 20006KT P6SM SKC=



000
FTUS45 KABQ 241100
TAFGUP
TAF
KGUP 241128Z 2412/2512 VRB06KT P6SM SKC
     FM241800 25013KT P6SM SKC
     FM250200 22006KT P6SM SCT250=



000
FTUS45 KABQ 241100
TAFSAF
TAF
KSAF 241128Z 2412/2512 34012KT P6SM SKC
     FM241800 25012KT P6SM SKC
     FM250200 02006KT P6SM FEW250=



000
FTUS45 KABQ 241100
TAFTCC
TAF
KTCC 241128Z 2412/2512 02013KT 5SM BLDU BKN020
      TEMPO 2412/2414 SCT025
     FM241400 02010KT P6SM SCT020
     FM241900 21012KT P6SM SKC
     FM250200 18010KT P6SM SKC=



000
FTUS45 KABQ 241100
TAFLVS
TAF
KLVS 241128Z 2412/2512 04008KT P6SM SKC
     FM241700 20012G20KT P6SM SKC
     FM242100 24018G28KT P6SM SKC
     FM250200 21008KT P6SM SKC=



000
FTUS45 KABQ 241100
TAFABQ
TAF
KABQ 241128Z 2412/2512 VRB06KT P6SM SKC
     FM241900 24010KT P6SM SKC
     FM250300 21007KT P6SM FEW250=



000
FTUS45 KABQ 240800 AAA
TAFTCC
TAF AMD
KTCC 240812Z 2408/2506 30015G22KT P6SM FEW100
     FM240830 35023G35KT 6SM BLDU SCT025
      TEMPO 2409/2412 2SM BLDU BKN025
     FM241400 01014G21KT P6SM SKC
     FM241900 28010G17KT P6SM SKC
     FM242200 24011G18KT P6SM SKC
     FM250300 21009KT P6SM SKC=



000
FTUS45 KABQ 240700 AAA
TAFSAF
TAF AMD
KSAF 240745Z 2408/2506 34012G20KT P6SM SKC
     FM241800 25010G17KT P6SM FEW250
     FM250200 26008KT P6SM SKC
     FM250400 VRB06KT P6SM SKC=



000
FTUS45 KABQ 240500
TAFLVS
TAF
KLVS 240537Z 2406/2506 29013G20KT P6SM SKC
     FM241100 33015KT P6SM SKC
     FM241700 21015G22KT P6SM SKC
     FM242100 24021G29KT P6SM SKC
     FM250200 24014KT P6SM SKC=



000
FTUS45 KABQ 240500
TAFROW
TAF
KROW 240537Z 2406/2506 31011KT P6SM SKC
     FM241400 35013KT P6SM SKC
     FM241700 01010KT P6SM SKC
     FM242000 08007KT P6SM SKC
     FM242300 15012KT P6SM SKC
     FM250400 20006KT P6SM SKC=



000
FTUS45 KABQ 240500
TAFFMN
TAF
KFMN 240537Z 2406/2506 31010KT P6SM SKC
     FM241000 VRB06KT P6SM SKC
     FM241800 27009G16KT P6SM SCT250
     FM250100 29008KT P6SM SKC
     FM250400 VRB05KT P6SM SKC=



000
FTUS45 KABQ 240500
TAFABQ
TAF
KABQ 240537Z 2406/2506 32012G22KT P6SM SKC
     FM241100 04011KT P6SM SKC
     FM241500 VRB04KT P6SM SKC
     FM242000 27009G16KT P6SM SCT250
     FM250300 21008KT P6SM FEW250=



000
FTUS45 KABQ 240500
TAFSAF
TAF
KSAF 240537Z 2406/2506 31009KT P6SM SKC
     FM241800 25010G17KT P6SM FEW250
     FM250200 26008KT P6SM SKC
     FM250400 VRB06KT P6SM SKC=



000
FTUS45 KABQ 240500
TAFGUP
TAF
KGUP 240537Z 2406/2506 34005KT P6SM SKC
     FM240800 VRB05KT P6SM SKC
     FM241800 25010G17KT P6SM SKC
     FM250200 28008KT P6SM SKC
     FM250400 VRB03KT P6SM SKC=



000
FTUS45 KABQ 240500
TAFTCC
TAF
KTCC 240537Z 2406/2506 27020KT P6SM SKC
     FM240700 30015G22KT P6SM FEW100
     FM241100 34020G27KT P6SM SKC
     FM241400 01014G21KT P6SM SKC
     FM241900 28010G17KT P6SM SKC
     FM242200 24011G18KT P6SM SKC
     FM250300 21009KT P6SM SKC=



000
FTUS45 KABQ 240400 AAC
TAFTCC
TAF AMD
KTCC 240408Z 2404/2424 28024G31KT P6SM FEW110
     FM240700 30020G27KT P6SM FEW100
     FM241200 36014KT P6SM FEW100
     FM241800 29010G17KT P6SM SKC=



000
FTUS45 KABQ 240400 AAB
TAFROW
TAF AMD
KROW 240408Z 2404/2424 24008KT P6SM SKC
     FM240700 31015KT P6SM SKC
     FM241400 35013KT P6SM SKC
     FM241700 01010KT P6SM SKC
     FM242000 08007KT P6SM SKC
     FM242300 15012G18KT P6SM SKC=



000
FTUS45 KABQ 240400 AAA
TAFLVS
TAF AMD
KLVS 240407Z 2404/2424 30013KT P6SM SKC
     FM241100 33015KT P6SM SKC
     FM241700 21015G22KT P6SM SKC
     FM242100 24021G29KT P6SM SKC=



000
FTUS45 KABQ 240400 AAC
TAFSAF
TAF AMD
KSAF 240406Z 2404/2424 32010KT P6SM SKC
     FM241100 33011KT P6SM SKC
     FM241800 27010G17KT P6SM FEW250=



000
FTUS45 KABQ 240400 AAC
TAFABQ
TAF AMD
KABQ 240404Z 2404/2424 31008KT P6SM FEW130
     FM240600 35015KT P6SM SKC
     FM241100 36010KT P6SM SKC
     FM241500 VRB04KT P6SM SKC
     FM241900 27009G16KT P6SM SCT250=



000
FTUS45 KABQ 240200 AAB
TAFGUP
TAF AMD
KGUP 240202Z 2402/2424 28010KT P6SM SKC
     FM240300 35011KT P6SM SKC
     FM240600 02006KT P6SM SKC
     FM240800 VRB05KT P6SM SKC
     FM241800 25010G17KT P6SM SKC=



000
FTUS45 KABQ 240200 AAB
TAFABQ
TAF AMD
KABQ 240201Z 2402/2424 31018G27KT P6SM FEW100 SCT130
     FM240300 32018G28KT P6SM FEW150
     FM240600 35016KT P6SM SKC
     FM241100 36010KT P6SM SKC
     FM241500 VRB04KT P6SM SKC
     FM241900 27009G16KT P6SM SCT250=



000
FTUS45 KABQ 240200 AAB
TAFSAF
TAF AMD
KSAF 240200Z 2402/2424 30014G25KT P6SM SKC
     FM240400 31014G24KT P6SM FEW100
     FM241100 33011KT P6SM SKC
     FM241800 27010G17KT P6SM FEW250=



000
FTUS45 KABQ 240200 AAB
TAFTCC
TAF AMD
KTCC 240200Z 2402/2424 29025G41KT 4SM HZ FEW005
     FM240700 30020G27KT P6SM FEW100
     FM241200 36014KT P6SM FEW100
     FM241800 29010G17KT P6SM SKC=



000
FTUS45 KABQ 240100 AAA
TAFGUP
TAF AMD
KGUP 240102Z 2401/2424 28024G31KT P6SM SKC
     FM240300 35011KT P6SM SKC
     FM240600 02006KT P6SM SKC
     FM240800 VRB05KT P6SM SKC
     FM241800 25010G17KT P6SM SKC=



000
FTUS45 KABQ 240100 AAB
TAFFMN
TAF AMD
KFMN 240101Z 2401/2424 30019G27KT P6SM SKC
     FM240300 30011KT P6SM SKC
     FM240600 29006KT P6SM SKC
     FM241000 VRB06KT P6SM SKC
     FM241800 27009G16KT P6SM SCT250=



000
FTUS45 KABQ 240000 AAA
TAFFMN
TAF AMD
KFMN 240019Z 2400/2424 25018G26KT P6SM FEW110
     FM240300 30011KT P6SM SKC
     FM240600 29006KT P6SM SKC
     FM241000 VRB06KT P6SM SKC
     FM241800 27009G16KT P6SM SCT250=



000
FTUS45 KABQ 240000 AAA
TAFABQ
TAF AMD
KABQ 240018Z 2400/2424 34019G33KT P6SM FEW100 BKN130
     FM240300 32018G28KT P6SM FEW150
     FM240600 35016KT P6SM SKC
     FM241100 36010KT P6SM SKC
     FM241500 VRB04KT P6SM SKC
     FM241900 27009G16KT P6SM SCT250=



000
FTUS45 KABQ 240000 AAA
TAFSAF
TAF AMD
KSAF 240017Z 2400/2424 30014KT P6SM FEW070 OVC090
     FM240400 31014G24KT P6SM FEW100
     FM241100 33011KT P6SM SKC
     FM241800 27010G17KT P6SM FEW250=



000
FTUS45 KABQ 240000 AAA
TAFTCC
TAF AMD
KTCC 240016Z 2400/2424 25018G27KT P6SM SKC
     FM240700 30020G27KT P6SM FEW100
     FM241200 36014KT P6SM FEW100
     FM241800 29010G17KT P6SM SKC=



000
FTUS45 KABQ 240000 AAA
TAFROW
TAF AMD
KROW 240014Z 2400/2424 23019G26KT P6SM SKC
     FM240400 27016G22KT P6SM SKC
     FM240700 31015KT P6SM SKC
     FM241400 35013KT P6SM SKC
     FM241700 01010KT P6SM SKC
     FM242000 08007KT P6SM SKC
     FM242300 15012G18KT P6SM SKC=



000
FTUS45 KABQ 232300
TAFSAF
TAF
KSAF 232324Z 2400/2424 28018G28KT P6SM BKN110
     FM240400 31014G24KT P6SM FEW100
     FM241100 33011KT P6SM SKC
     FM241800 27010G17KT P6SM FEW250=



000
FTUS45 KABQ 232300
TAFLVS
TAF
KLVS 232324Z 2400/2424 25027G35KT P6SM SCT110
     FM240200 29017G27KT P6SM SCT100
     FM241100 33015KT P6SM SKC
     FM241700 21015G22KT P6SM SKC
     FM242100 24021G29KT P6SM SKC=



000
FTUS45 KABQ 232300
TAFABQ
TAF
KABQ 232324Z 2400/2424 28027G36KT P6SM FEW090 BKN130 OVC180
     FM240300 32018G28KT P6SM FEW150
     FM240600 35016KT P6SM SKC
     FM241100 36010KT P6SM SKC
     FM241500 VRB04KT P6SM SKC
     FM241900 27009G16KT P6SM SCT250=



000
FTUS45 KABQ 232300
TAFROW
TAF
KROW 232324Z 2400/2424 23024G36KT P6SM SKC
     FM240400 27022G29KT P6SM SKC
     FM240700 31015KT P6SM SKC
     FM241400 35013KT P6SM SKC
     FM241700 01010KT P6SM SKC
     FM242000 08007KT P6SM SKC
     FM242300 15012G18KT P6SM SKC=



000
FTUS45 KABQ 232300
TAFGUP
TAF
KGUP 232324Z 2400/2424 25023G27KT P6SM BKN120
     FM240300 35011KT P6SM SKC
     FM240600 02006KT P6SM SKC
     FM240800 VRB05KT P6SM SKC
     FM241800 25010G17KT P6SM SKC=



000
FTUS45 KABQ 232300
TAFFMN
TAF
KFMN 232324Z 2400/2424 28016G26KT P6SM SKC
     FM240300 30011KT P6SM SKC
     FM240600 29006KT P6SM SKC
     FM241000 VRB06KT P6SM SKC
     FM241800 27009G16KT P6SM SCT250=



000
FTUS45 KABQ 232300
TAFTCC
TAF
KTCC 232324Z 2400/2424 22025G30KT P6SM SKC
     FM240700 30020G27KT P6SM FEW100
     FM241200 36014KT P6SM FEW100
     FM241800 29010G17KT P6SM SKC=



000
FTUS45 KABQ 231700
TAFROW
TAF
KROW 231720Z 2318/2418 21016G26KT P6SM SCT200
     FM232000 23024G34KT P6SM SCT200
     FM240200 25015KT P6SM SKC
     FM240800 29010KT P6SM SKC
     FM241100 36010KT P6SM SKC=



000
FTUS45 KABQ 231700
TAFFMN
TAF
KFMN 231720Z 2318/2418 26015G25KT P6SM FEW150 BKN200
     FM232200 29020G30KT P6SM FEW120 SCT200
     FM240200 30011KT P6SM SKC
     FM240600 33006KT P6SM SKC
     FM241000 06006KT P6SM SKC=



000
FTUS45 KABQ 231700
TAFLVS
TAF
KLVS 231720Z 2318/2418 24027G37KT P6SM FEW100
     FM240200 29017G27KT P6SM SCT100
     FM240500 30015KT P6SM SKC
     FM240800 33010KT P6SM SKC=



000
FTUS45 KABQ 231700
TAFABQ
TAF
KABQ 231720Z 2318/2418 23011KT P6SM FEW120 FEW250
     FM232000 24019G29KT P6SM FEW120 SCT250
     FM232300 27022G32KT P6SM SCT120 SCT250
     FM240100 32018G28KT P6SM FEW150
     FM240400 35011KT P6SM SKC
     FM240800 VRB04KT P6SM SKC=



000
FTUS45 KABQ 231700
TAFGUP
TAF
KGUP 231720Z 2318/2418 23018G28KT P6SM FEW120 SCT200
     FM232100 26022G32KT P6SM FEW120
     FM240200 35011KT P6SM SKC
     FM240500 02006KT P6SM SKC
     FM240800 VRB03KT P6SM SKC=



000
FTUS45 KABQ 231700
TAFSAF
TAF
KSAF 231720Z 2318/2418 25018G28KT P6SM FEW100
     FM232300 26021G31KT P6SM SCT100
     FM240100 31014G24KT P6SM FEW100
     FM240300 33011KT P6SM SKC
     FM241100 36009KT P6SM SKC=



000
FTUS45 KABQ 231700
TAFTCC
TAF
KTCC 231720Z 2318/2418 22020G30KT P6SM SCT250
     FM232000 24026G36KT P6SM FEW120
     FM240200 27014G24KT P6SM SCT100
     FM240400 30014KT P6SM FEW100
     FM240800 35007KT P6SM SKC=



000
FTUS45 KABQ 231100
TAFSAF
TAF
KSAF 231126Z 2312/2412 16008KT P6SM SCT100
     FM231500 22011KT P6SM SCT100
     FM231700 24018G28KT P6SM SCT100
     FM232300 26021G31KT P6SM SCT100
     FM240100 31014G24KT P6SM FEW100
     FM240300 33011KT P6SM SKC=



000
FTUS45 KABQ 231100
TAFFMN
TAF
KFMN 231126Z 2312/2412 25015KT P6SM FEW120
     FM231800 26015G25KT P6SM SCT120
     FM232200 29020G30KT P6SM SCT120
     FM240200 30011KT P6SM SKC=



000
FTUS45 KABQ 231100
TAFROW
TAF
KROW 231126Z 2312/2412 17015KT P6SM SCT120
     FM231500 19015KT P6SM SCT120
     FM231800 21016G26KT P6SM SCT120
     FM232000 23024G34KT P6SM SCT120
     FM240200 25015KT P6SM SKC=



000
FTUS45 KABQ 231100
TAFLVS
TAF
KLVS 231126Z 2312/2412 19015KT P6SM SCT060 SCT110
     FM231400 23019G29KT P6SM SCT110
     FM231800 24027G37KT P6SM SCT100
     FM240200 29017G27KT P6SM FEW120
     FM240500 30015KT P6SM SKC=



000
FTUS45 KABQ 231100
TAFTCC
TAF
KTCC 231126Z 2312/2412 19018G28KT P6SM SCT100
     FM231400 22020G30KT P6SM SCT120
     FM232000 24026G36KT P6SM SCT120
     FM240200 27014G24KT P6SM FEW100
     FM240400 30014KT P6SM FEW100=



000
FTUS45 KABQ 231100
TAFABQ
TAF
KABQ 231126Z 2312/2412 18006KT P6SM SCT150
     FM231600 23011KT P6SM SCT120
     FM232000 24019G29KT P6SM SCT120
     FM232300 27022G32KT P6SM SCT120
     FM240100 32018G28KT P6SM FEW120
     FM240400 35011KT P6SM SKC=



000
FTUS45 KABQ 231100
TAFGUP
TAF
KGUP 231126Z 2312/2412 22015KT P6SM SCT120
     FM231500 23018G28KT P6SM FEW120
     FM232100 26022G32KT P6SM FEW120
     FM240200 35011KT P6SM SKC
     FM240500 02007KT P6SM FEW250=



000
FTUS45 KABQ 230500
TAFSAF
TAF
KSAF 230538Z 2306/2406 16008KT P6SM BKN110
     FM231200 22011KT P6SM SCT200
     FM231700 24018G28KT P6SM SCT100
     FM232300 26021G31KT P6SM VCSH BKN100
     FM240100 31014G24KT P6SM SCT100
     FM240300 33011KT P6SM SKC=



000
FTUS45 KABQ 230500
TAFABQ
TAF
KABQ 230538Z 2306/2406 18011KT P6SM BKN140
     FM230900 22006KT P6SM SCT150
     FM231600 23011KT P6SM FEW120
     FM232000 24019G29KT P6SM VCSH SCT120
     FM232300 27022G32KT P6SM VCSH SCT120
     FM240100 32018G28KT P6SM FEW120
     FM240400 35011KT P6SM SKC=



000
FTUS45 KABQ 230500
TAFGUP
TAF
KGUP 230538Z 2306/2406 22015KT P6SM BKN200
      TEMPO 2306/2308 22015G25KT
     FM231500 23018G28KT P6SM FEW120
     FM232100 26022G32KT P6SM FEW120
     FM240200 35011KT P6SM SKC
     FM240500 VRB03KT P6SM FEW250=



000
FTUS45 KABQ 230500
TAFLVS
TAF
KLVS 230538Z 2306/2406 19015KT P6SM SCT060 BKN110
     FM231400 23019G29KT P6SM BKN250
     FM231800 24027G37KT P6SM SCT120
     FM240200 29017G27KT P6SM FEW120
     FM240500 30015KT P6SM SKC=



000
FTUS45 KABQ 230500
TAFTCC
TAF
KTCC 230538Z 2306/2406 19015KT P6SM SCT100
     FM231400 22020G30KT P6SM SCT200
     FM232000 24026G36KT P6SM SCT200
     FM240200 27014G24KT P6SM SCT100
     FM240400 30014KT P6SM SCT100=



000
FTUS45 KABQ 230500
TAFFMN
TAF
KFMN 230538Z 2306/2406 22008KT P6SM BKN120
     FM231600 25014KT P6SM FEW120
     FM231800 26014G24KT P6SM SCT120
     FM232200 29021G31KT P6SM SCT120
     FM240200 30011KT P6SM SKC=



000
FTUS45 KABQ 230500
TAFROW
TAF
KROW 230538Z 2306/2406 17011KT P6SM BKN100
     FM231500 19015KT P6SM SCT100
     FM231800 21016G26KT P6SM FEW250
     FM232000 23024G34KT P6SM FEW250
     FM240200 25015KT P6SM SKC=



000
FTUS45 KABQ 230400 AAC
TAFTCC
TAF AMD
KTCC 230427Z 2304/2324 17011KT P6SM VCSH SCT060 BKN100
      TEMPO 2304/2306 16020G30KT 3SM -TSRA BKN060CB
     FM231400 23022G32KT P6SM SCT200=



000
FTUS45 KABQ 230400 AAA
TAFSAF
TAF AMD
KSAF 230427Z 2304/2324 14011KT P6SM SCT120
      TEMPO 2304/2306 26015G25KT
     FM231200 21011KT P6SM SCT200
     FM231700 24017G27KT P6SM SCT100
     FM232300 27021G31KT P6SM VCSH BKN100=



000
FTUS45 KABQ 230300 AAB
TAFTCC
TAF AMD
KTCC 230329Z 2303/2324 17011KT P6SM VCSH SCT060 BKN100
      TEMPO 2303/2305 21020G30KT -TSRA BKN060CB
     FM231400 23022G32KT P6SM SCT200=



000
FTUS45 KABQ 230300 AAA
TAFTCC
TAF AMD
KTCC 230304Z 2303/2324 17011KT P6SM VCSH SCT060 BKN100
      TEMPO 2303/2305 21020G30KT -SHRA BKN060
     FM231400 23022G32KT P6SM SCT200=



000
FTUS45 KABQ 230200 AAA
TAFLVS
TAF AMD
KLVS 230225Z 2302/2324 19017KT P6SM SCT060 BKN110
      TEMPO 2302/2304 16011KT -SHRA BKN060
     FM231400 23020G30KT P6SM FEW250
     FM232000 24026G36KT P6SM BKN100=



000
FTUS45 KABQ 230200 AAA
TAFGUP
TAF AMD
KGUP 230225Z 2302/2324 22015KT P6SM BKN120
      TEMPO 2302/2305 22015G25KT
     FM231500 23018G28KT P6SM FEW120
     FM232100 26019G29KT P6SM FEW120=



000
FTUS45 KABQ 222300
TAFLVS
TAF
KLVS 222339Z 2300/2324 20015G25KT P6SM VCSH BKN100
      TEMPO 2300/2302 21025G35KT
     FM230200 20015G25KT P6SM BKN110
     FM230600 20015KT P6SM SCT120
     FM231400 23020G30KT P6SM FEW250
     FM232000 24026G36KT P6SM BKN100=



000
FTUS45 KABQ 222300
TAFROW
TAF
KROW 222339Z 2300/2324 16018G28KT P6SM BKN100
     FM230300 17011KT P6SM VCSH BKN100
     FM230600 17011KT P6SM BKN100
     FM231500 20015KT P6SM SCT100
     FM232000 23021G31KT P6SM FEW250=



000
FTUS45 KABQ 222300
TAFABQ
TAF
KABQ 222339Z 2300/2324 20019G29KT P6SM VCSH BKN120
     FM230200 18011KT P6SM SCT120
     FM230900 18006KT P6SM SCT200
     FM231600 23011KT P6SM FEW120
     FM232000 24019G29KT P6SM VCSH BKN120=



000
FTUS45 KABQ 222300
TAFGUP
TAF
KGUP 222339Z 2300/2324 23022G32KT P6SM BKN120
     FM230200 22015KT P6SM SCT120
     FM231500 23018G28KT P6SM FEW120
     FM232100 26019G29KT P6SM FEW120=



000
FTUS45 KABQ 222300
TAFTCC
TAF
KTCC 222339Z 2300/2324 20020G30KT P6SM VCSH BKN100
     FM230200 19015KT P6SM SCT120
     FM231400 23022G32KT P6SM SCT200=



000
FTUS45 KABQ 222300
TAFSAF
TAF
KSAF 222339Z 2300/2324 22015KT P6SM VCSH BKN100
      TEMPO 2300/2302 22018G28KT
     FM230200 17014KT P6SM BKN100
     FM230600 14011KT P6SM SCT120
     FM231200 21011KT P6SM SCT200
     FM231700 24017G27KT P6SM SCT100
     FM232300 27021G31KT P6SM VCSH BKN100=



000
FTUS45 KABQ 222300
TAFFMN
TAF
KFMN 222339Z 2300/2324 23017G27KT P6SM BKN110
     FM230200 24014KT P6SM BKN110
     FM230600 22008KT P6SM SCT120
     FM231600 26014KT P6SM FEW120
     FM231800 26014G24KT P6SM SCT120
     FM232200 29021G31KT P6SM SCT120=



000
FTUS45 KABQ 222200 AAA
TAFSAF
TAF AMD
KSAF 222229Z 2222/2318 22015KT P6SM SCT090 BKN110
      TEMPO 2222/2301 22018G28KT
     FM230200 17012KT P6SM SCT120
     FM231600 23016KT P6SM FEW200=



000
FTUS45 KABQ 222200 AAA
TAFLVS
TAF AMD
KLVS 222229Z 2222/2318 21015G25KT P6SM VCSH BKN100
      TEMPO 2222/2301 21025G35KT
     FM230200 20017KT P6SM SCT120
     FM231600 22018G27KT P6SM FEW200=



000
FTUS45 KABQ 221700
TAFROW
TAF
KROW 221735Z 2218/2318 17015KT P6SM SKC
     FM222100 17018G26KT P6SM SCT100
     FM230300 17011KT P6SM SCT120
     FM231600 20015KT P6SM FEW200=



000
FTUS45 KABQ 221700
TAFABQ
TAF
KABQ 221735Z 2218/2318 20014G22KT P6SM SCT120
     FM222000 20019G29KT P6SM BKN120
     FM230200 19010KT P6SM SCT120
     FM230900 18006KT P6SM FEW200
     FM231600 23012KT P6SM FEW200=



000
FTUS45 KABQ 221700
TAFFMN
TAF
KFMN 221735Z 2218/2318 17013KT P6SM SCT110
     FM222100 23017G28KT P6SM BKN110
     FM230200 24015KT P6SM SCT120
     FM230600 22008KT P6SM FEW120
     FM231600 26014KT P6SM SCT200=



000
FTUS45 KABQ 221700
TAFTCC
TAF
KTCC 221735Z 2218/2318 21015G25KT P6SM FEW080
     FM222100 21020G30KT P6SM SCT120
     FM230200 19015KT P6SM SCT120
     FM231600 23018G28KT P6SM FEW200=



000
FTUS45 KABQ 221700
TAFGUP
TAF
KGUP 221735Z 2218/2318 22018G28KT P6SM SCT120
     FM222000 22025G35KT P6SM BKN120
     FM230200 22015KT P6SM SCT120
     FM231600 22015G25KT P6SM FEW200=



000
FTUS45 KABQ 221700
TAFLVS
TAF
KLVS 221735Z 2218/2318 21018G28KT P6SM SCT080
     FM222000 21025G35KT P6SM VCSH BKN100
     FM230200 20017KT P6SM SCT120
     FM231600 22018G27KT P6SM FEW200=



000
FTUS45 KABQ 221700
TAFSAF
TAF
KSAF 221735Z 2218/2318 18015KT P6SM SCT110
     FM222030 20019G29KT P6SM SCT090 BKN110
     FM230200 17012KT P6SM SCT120
     FM231600 23016KT P6SM FEW200=



000
FTUS45 KABQ 221100
TAFTCC
TAF
KTCC 221122Z 2212/2312 22008KT P6SM SCT120
     FM221600 21015G25KT P6SM SCT080
     FM222100 21020G30KT P6SM SCT080 SCT150
     FM230200 19018KT P6SM SCT120=



000
FTUS45 KABQ 221100
TAFROW
TAF
KROW 221122Z 2212/2312 17008KT P6SM SKC
     FM221700 15015G25KT P6SM SKC
     FM222100 17018G25KT P6SM SCT090
     FM230200 17013KT P6SM SCT120=



000
FTUS45 KABQ 221100
TAFLVS
TAF
KLVS 221122Z 2212/2312 19012KT P6SM SCT060
     FM221600 21015G25KT P6SM SCT080
     FM222000 21025G35KT P6SM VCSH BKN100
     FM230200 19017KT P6SM SCT120=



000
FTUS45 KABQ 221100
TAFSAF
TAF
KSAF 221122Z 2212/2312 15012G18KT P6SM BKN120
     FM221700 18015KT P6SM SCT110
     FM222030 21018G28KT P6SM BKN110
     FM230200 17012KT P6SM SCT120=



000
FTUS45 KABQ 221100
TAFGUP
TAF
KGUP 221122Z 2212/2312 VRB06KT P6SM SCT120
     FM221700 22015G25KT P6SM SCT120
     FM222100 22023G33KT P6SM SCT120
     FM230200 22015KT P6SM SCT120=



000
FTUS45 KABQ 221100
TAFFMN
TAF
KFMN 221122Z 2212/2312 08007KT P6SM SCT120
     FM221700 15013KT P6SM SCT110
     FM222100 23020G30KT P6SM BKN110
     FM230200 24015KT P6SM SCT120=



000
FTUS45 KABQ 221100
TAFABQ
TAF
KABQ 221122Z 2212/2312 09012KT P6SM BKN110
     FM221600 19010KT P6SM SCT110
     FM222100 20020G30KT P6SM BKN120
     FM230200 22010KT P6SM SCT120=



000
FTUS45 KABQ 220900 AAA
TAFSAF
TAF AMD
KSAF 220927Z 2209/2306 19010KT P6SM BKN120
     FM221800 21015KT P6SM SCT110
     FM222030 21018G28KT P6SM BKN110
     FM230200 16013KT P6SM SCT120=



    US Dept of Commerce
    National Oceanic and Atmospheric Administration
    National Weather Service
    1325 East West Highway
    Silver Spring, MD 20910
    Page Author: NWS Internet Services Team
Disclaimer
Information Quality
Credits
Glossary
Privacy Policy
Freedom of Information Act (FOIA)
About Us
Career Opportunities